createdAt,value
2023-04-23T00:03:48.544Z,14.50
2023-04-23T00:08:42.279Z,14.60
2023-04-23T00:13:35.145Z,14.70
2023-04-23T00:18:27.166Z,14.60
2023-04-23T00:23:19.215Z,14.60
2023-04-23T00:28:11.326Z,14.70
2023-04-23T00:33:03.629Z,14.60
2023-04-23T00:37:55.987Z,14.50
2023-04-23T00:42:49.228Z,14.40
2023-04-23T00:47:41.946Z,14.30
2023-04-23T00:52:36.048Z,14.20
2023-04-23T00:57:28.199Z,14.10
2023-04-23T01:02:20.931Z,14.00
2023-04-23T01:12:26.221Z,13.90
2023-04-23T01:17:18.301Z,13.90
2023-04-23T01:22:12.425Z,13.80
2023-04-23T01:27:04.670Z,13.70
2023-04-23T01:31:57.989Z,13.60
2023-04-23T01:36:51.130Z,13.60
2023-04-23T01:41:43.914Z,13.50
2023-04-23T01:46:37.001Z,13.30
2023-04-23T01:51:30.841Z,13.20
2023-04-23T01:56:28.232Z,13.10
2023-04-23T02:01:20.753Z,13.00
2023-04-23T02:06:13.701Z,12.90
2023-04-23T02:11:08.883Z,12.80
2023-04-23T02:16:01.080Z,12.80
2023-04-23T02:20:53.870Z,12.80
2023-04-23T02:25:47.349Z,12.80
2023-04-23T02:30:45.285Z,12.80
2023-04-23T02:35:37.384Z,12.90
2023-04-23T02:40:29.472Z,12.90
2023-04-23T02:45:21.738Z,13.00
2023-04-23T02:50:16.578Z,13.00
2023-04-23T02:55:09.604Z,13.00
2023-04-23T03:00:01.870Z,13.00
2023-04-23T03:05:05.449Z,13.00
2023-04-23T03:09:57.568Z,13.00
2023-04-23T03:14:50.096Z,13.00
2023-04-23T03:19:42.437Z,12.90
2023-04-23T03:24:35.379Z,12.80
2023-04-23T03:29:28.333Z,12.70
2023-04-23T03:34:20.994Z,12.80
2023-04-23T03:39:13.023Z,13.00
2023-04-23T03:44:14.477Z,13.30
2023-04-23T03:49:09.661Z,13.40
2023-04-23T03:54:02.166Z,13.60
2023-04-23T03:59:20.635Z,13.80
2023-04-23T04:04:15.928Z,14.00
2023-04-23T04:09:08.948Z,14.10
2023-04-23T04:14:00.994Z,14.10
2023-04-23T04:18:55.125Z,14.10
2023-04-23T04:23:48.423Z,14.10
2023-04-23T04:28:41.008Z,14.10
2023-04-23T04:33:35.647Z,14.00
2023-04-23T04:38:28.626Z,13.90
2023-04-23T04:43:20.710Z,13.90
2023-04-23T04:48:12.810Z,13.90
2023-04-23T04:53:04.849Z,14.00
2023-04-23T04:57:57.186Z,14.20
2023-04-23T05:02:52.608Z,14.40
2023-04-23T05:07:44.900Z,14.90
2023-04-23T05:12:37.352Z,15.30
2023-04-23T05:17:29.382Z,15.80
2023-04-23T05:22:23.324Z,16.40
2023-04-23T05:27:15.459Z,17.00
2023-04-23T05:32:07.663Z,17.80
2023-04-23T05:36:59.976Z,18.40
2023-04-23T05:41:52.031Z,19.00
2023-04-23T05:46:44.088Z,19.30
2023-04-23T05:51:37.335Z,19.20
2023-04-23T05:56:29.403Z,19.40
2023-04-23T06:01:21.667Z,20.50
2023-04-23T06:06:14.092Z,21.00
2023-04-23T06:11:06.647Z,21.10
2023-04-23T06:16:01.112Z,20.70
2023-04-23T06:20:53.370Z,22.90
2023-04-23T06:25:46.740Z,27.20
2023-04-23T06:30:38.768Z,29.70
2023-04-23T06:35:31.421Z,30.90
2023-04-23T06:40:23.406Z,29.90
2023-04-23T06:45:16.469Z,27.20
2023-04-23T06:50:09.137Z,24.80
2023-04-23T06:55:02.599Z,23.50
2023-04-23T06:59:54.640Z,22.70
2023-04-23T07:04:50.548Z,21.90
2023-04-23T07:09:42.604Z,21.00
2023-04-23T07:14:34.676Z,20.40
2023-04-23T07:19:27.582Z,20.00
2023-04-23T07:24:19.638Z,19.70
2023-04-23T07:29:11.999Z,19.80
2023-04-23T07:34:04.034Z,19.90
2023-04-23T07:38:57.229Z,19.90
2023-04-23T07:43:49.364Z,20.00
2023-04-23T07:48:41.401Z,20.10
2023-04-23T07:53:33.527Z,19.80
2023-04-23T07:58:25.865Z,19.60
2023-04-23T08:03:18.307Z,19.70
2023-04-23T08:08:12.114Z,20.10
2023-04-23T08:13:04.444Z,21.10
2023-04-23T08:17:56.555Z,24.80
2023-04-23T08:22:50.245Z,28.60
2023-04-23T08:27:42.306Z,28.80
2023-04-23T08:32:34.450Z,29.80
2023-04-23T08:37:30.849Z,32.80
2023-04-23T08:42:47.791Z,32.00
2023-04-23T08:47:44.554Z,30.50
2023-04-23T08:52:40.802Z,28.60
2023-04-23T08:57:33.349Z,26.90
2023-04-23T09:02:26.585Z,24.80
2023-04-23T09:07:19.091Z,23.30
2023-04-23T09:12:11.286Z,22.20
2023-04-23T09:17:03.867Z,21.70
2023-04-23T09:21:56.152Z,21.50
2023-04-23T09:26:49.932Z,22.00
2023-04-23T09:31:42.633Z,22.40
2023-04-23T09:36:36.908Z,23.10
2023-04-23T09:41:31.190Z,23.20
2023-04-23T09:46:37.821Z,22.80
2023-04-23T09:51:30.755Z,22.60
2023-04-23T09:56:22.900Z,22.60
2023-04-23T10:01:15.506Z,22.40
2023-04-23T10:06:14.250Z,22.00
2023-04-23T10:11:20.453Z,21.50
2023-04-23T10:16:22.456Z,21.40
2023-04-23T10:21:18.154Z,22.00
2023-04-23T10:26:14.972Z,22.70
2023-04-23T10:31:07.193Z,23.00
2023-04-23T10:36:00.335Z,23.50
2023-04-23T10:40:55.346Z,23.10
2023-04-23T10:45:49.391Z,22.80
2023-04-23T10:51:00.183Z,22.50
2023-04-23T10:56:08.050Z,22.30
2023-04-23T11:01:05.835Z,22.70
2023-04-23T11:06:02.988Z,23.20
2023-04-23T11:10:57.049Z,24.50
2023-04-23T11:15:49.202Z,25.40
2023-04-23T11:20:41.297Z,25.20
2023-04-23T11:25:37.685Z,25.00
2023-04-23T11:30:31.201Z,24.80
2023-04-23T11:35:28.404Z,24.70
2023-04-23T11:40:21.432Z,24.70
2023-04-23T11:45:23.301Z,24.60
2023-04-23T11:50:23.495Z,25.10
2023-04-23T11:55:16.858Z,25.20
2023-04-23T12:00:19.031Z,25.10
2023-04-23T12:05:11.687Z,25.20
2023-04-23T12:10:05.063Z,24.60
2023-04-23T12:15:05.202Z,23.70
2023-04-23T12:19:58.377Z,23.30
2023-04-23T12:24:54.886Z,22.80
2023-04-23T12:29:50.827Z,22.40
2023-04-23T12:34:56.969Z,22.30
2023-04-23T12:39:49.152Z,22.40
2023-04-23T12:44:41.216Z,22.30
2023-04-23T12:49:34.867Z,23.00
2023-04-23T12:54:37.862Z,23.80
2023-04-23T12:59:31.194Z,24.50
2023-04-23T13:04:23.376Z,24.60
2023-04-23T13:09:15.413Z,24.60
2023-04-23T13:14:08.187Z,24.80
2023-04-23T13:19:01.029Z,25.00
2023-04-23T13:23:56.205Z,25.00
2023-04-23T13:28:48.296Z,24.90
2023-04-23T13:33:41.191Z,24.90
2023-04-23T13:38:33.578Z,24.80
2023-04-23T13:43:25.712Z,24.80
2023-04-23T13:48:19.160Z,24.60
2023-04-23T13:53:11.755Z,24.10
2023-04-23T13:58:04.979Z,23.70
2023-04-23T14:02:57.196Z,23.80
2023-04-23T14:07:49.544Z,23.50
2023-04-23T14:12:41.718Z,23.40
2023-04-23T14:17:35.673Z,23.80
2023-04-23T14:22:28.231Z,23.60
2023-04-23T14:27:20.267Z,23.50
2023-04-23T14:32:12.943Z,23.50
2023-04-23T14:37:05.546Z,23.30
2023-04-23T14:41:57.579Z,23.20
2023-04-23T14:46:51.220Z,23.00
2023-04-23T14:51:44.543Z,22.40
2023-04-23T14:56:37.295Z,22.20
2023-04-23T15:01:32.160Z,21.90
2023-04-23T15:06:24.272Z,21.80
2023-04-23T15:11:16.382Z,21.70
2023-04-23T15:16:26.333Z,21.50
2023-04-23T15:21:28.600Z,21.20
2023-04-23T15:26:21.655Z,21.20
2023-04-23T15:31:13.846Z,21.00
2023-04-23T15:36:06.004Z,21.10
2023-04-23T15:40:58.355Z,21.20
2023-04-23T15:45:50.457Z,21.00
2023-04-23T15:50:43.341Z,20.90
2023-04-23T15:55:35.510Z,20.60
2023-04-23T16:00:28.628Z,20.50
2023-04-23T16:05:20.808Z,20.50
2023-04-23T16:10:12.973Z,20.80
2023-04-23T16:15:06.683Z,20.90
2023-04-23T16:19:58.760Z,21.00
2023-04-23T16:24:50.945Z,20.90
2023-04-23T16:29:43.382Z,20.50
2023-04-23T16:34:35.592Z,20.10
2023-04-23T16:39:27.642Z,20.00
2023-04-23T16:44:19.825Z,19.90
2023-04-23T16:49:13.503Z,19.70
2023-04-23T16:54:06.352Z,19.50
2023-04-23T16:58:58.591Z,19.40
2023-04-23T17:03:51.107Z,19.20
2023-04-23T17:08:43.283Z,19.10
2023-04-23T17:13:35.428Z,19.00
2023-04-23T17:18:27.681Z,18.90
2023-04-23T17:23:19.692Z,18.80
2023-04-23T17:28:11.753Z,18.80
2023-04-23T17:33:03.855Z,18.60
2023-04-23T17:37:55.977Z,18.50
2023-04-23T17:42:47.963Z,18.20
2023-04-23T17:47:40.976Z,17.80
2023-04-23T17:52:33.083Z,17.50
2023-04-23T17:57:25.616Z,17.30
2023-04-23T18:02:17.928Z,17.00
2023-04-23T18:07:10.133Z,16.90
2023-04-23T18:12:04.050Z,16.80
2023-04-23T18:16:56.280Z,16.70
2023-04-23T18:21:49.962Z,16.70
2023-04-23T18:26:42.066Z,16.60
2023-04-23T18:31:34.083Z,16.60
2023-04-23T18:36:33.548Z,16.40
2023-04-23T18:41:25.723Z,16.40
2023-04-23T18:46:17.909Z,16.30
2023-04-23T18:51:29.073Z,16.30
2023-04-23T18:56:21.245Z,16.30
2023-04-23T19:01:13.758Z,16.30
2023-04-23T19:06:07.950Z,16.30
2023-04-23T19:11:00.413Z,16.30
2023-04-23T19:15:52.555Z,16.30
2023-04-23T19:20:44.999Z,16.20
2023-04-23T19:25:37.335Z,16.00
2023-04-23T19:30:30.651Z,15.80
2023-04-23T19:35:22.689Z,15.60
2023-04-23T19:40:14.925Z,15.40
2023-04-23T19:45:08.555Z,15.30
2023-04-23T19:50:00.657Z,15.20
2023-04-23T19:54:52.659Z,15.10
2023-04-23T19:59:45.931Z,15.00
2023-04-23T20:04:38.200Z,14.90
2023-04-23T20:09:30.445Z,14.90
2023-04-23T20:14:24.762Z,14.70
2023-04-23T20:19:17.528Z,14.70
2023-04-23T20:24:10.609Z,14.60
2023-04-23T20:29:02.842Z,14.50
2023-04-23T20:33:55.034Z,14.40
2023-04-23T20:38:47.613Z,14.30
2023-04-23T20:43:42.445Z,14.30
2023-04-23T20:48:34.818Z,14.30
2023-04-23T20:53:26.921Z,14.10
2023-04-23T20:58:18.889Z,13.90
2023-04-23T21:03:11.482Z,14.00
2023-04-23T21:08:03.796Z,13.90
2023-04-23T21:12:55.933Z,13.70
2023-04-23T21:17:47.971Z,13.70
2023-04-23T21:22:39.977Z,13.60
2023-04-23T21:27:32.039Z,13.50
2023-04-23T21:32:24.134Z,13.40
2023-04-23T21:37:16.217Z,13.30
2023-04-23T21:42:08.242Z,13.30
2023-04-23T21:47:00.433Z,13.30
2023-04-23T21:51:54.658Z,13.50
2023-04-23T21:56:46.662Z,13.50
2023-04-23T22:01:38.678Z,13.50
2023-04-23T22:06:31.239Z,13.50
2023-04-23T22:11:23.450Z,13.50
2023-04-23T22:16:27.429Z,13.50
2023-04-23T22:21:20.527Z,13.30
2023-04-23T22:26:12.959Z,13.30
2023-04-23T22:31:05.100Z,13.10
2023-04-23T22:35:57.094Z,13.10
2023-04-23T22:40:49.102Z,13.00
2023-04-23T22:45:41.178Z,12.90
2023-04-23T22:50:33.270Z,12.80
2023-04-23T22:55:25.655Z,12.70
2023-04-23T23:00:17.828Z,12.70
2023-04-23T23:05:10.306Z,12.70
2023-04-23T23:10:05.053Z,12.60
2023-04-23T23:14:57.038Z,12.60
2023-04-23T23:19:49.069Z,12.80
2023-04-23T23:24:41.120Z,12.90
2023-04-23T23:29:33.166Z,13.00
2023-04-23T23:34:25.196Z,13.00
2023-04-23T23:39:20.062Z,12.90
2023-04-23T23:44:12.113Z,12.80
2023-04-23T23:49:04.137Z,12.80
2023-04-23T23:53:56.141Z,12.80
2023-04-23T23:58:48.134Z,12.80
